Terminal Aerodrome Forecast
Issued by NWS Boston, MA

Home | Current Version | Previous Version | Text Only | Print | Product List | Glossary On
Versions: 1 2 3 4 5 6 7 8 9 10 11 12 13 14 15 16 17 18 19 20 21 22 23 24 25 26
000
FTUS41 KBOX 300530
TAFORH
TAF
KORH 300530Z 3006/3106 25008KT P6SM FEW200
     FM301700 22011G20KT P6SM VCSH SCT050 BKN250
     FM302200 23012KT 5SM SHRA BKN030 BKN050
     FM310200 25008KT P6SM VCSH BKN020
     FM310400 25008KT P6SM BKN020=

USA.gov is the U.S. government's official web portal to all federal, state and local government web resources and services.